Time;durP1;ratioP1;P1;durP2;ratioP2;P2;SDS_P1;SDS_P2;PMS_P1;PMS_P2;Temp;Humidity;BMP_temperature;BMP_pressure;BME280_temperature;BME280_humidity;BME280_pressure;Samples;Min_cycle;Max_cycle;Signal;HPM_P1;HPM_P2
2022/07/27 00:01:15;;;;;;;;;;;;;;;;;;5116675;27;20524;-82
2022/07/27 00:03:41;;;;;;;;;;;;;;;;;;5114913;28;19920;-82
2022/07/27 00:06:07;;;;;;;;;;;;;;;;;;5120041;27;19942;-82
2022/07/27 00:08:32;;;;;;;;;;;;;;;;;;5115490;28;20018;-83
2022/07/27 00:10:58;;;;;;;;;;;;;;;;;;5117671;27;19926;-82
2022/07/27 00:13:23;;;;;;;;;;;;;;;;;;5116958;28;20000;-82
2022/07/27 00:15:49;;;;;;;;;;;;;;;;;;5118100;28;19926;-82
2022/07/27 00:18:14;;;;;;;;;;;;;;;;;;5116402;28;19946;-79
2022/07/27 00:20:40;;;;;;;;;;;;;;;;;;5117963;27;19928;-79
2022/07/27 00:23:06;;;;;;;;;;;;;;;;;;5116627;27;19920;-82
2022/07/27 00:25:31;;;;;;;;;;;;;;;;;;5133900;27;19916;-82
2022/07/27 00:27:56;;;;;;;;;;;;;;;;;;5124110;27;19972;-82
2022/07/27 00:30:22;;;;;;;;;;;;;;;;;;5117842;28;19919;-82
2022/07/27 00:32:47;;;;;;;;;;;;;;;;;;5116398;28;20366;-83
2022/07/27 00:35:13;;;;;;;;;;;;;;;;;;5119617;27;19926;-83
2022/07/27 00:37:39;;;;;;;;;;;;;;;;;;5120834;27;19920;-82
2022/07/27 00:40:05;;;;;;;;;;;;;;;;;;5115333;28;19916;-82
2022/07/27 00:42:30;;;;;;;;;;;;;;;;;;5119255;27;20062;-82
2022/07/27 00:44:56;;;;;;;;;;;;;;;;;;5116986;28;19915;-81
2022/07/27 00:47:22;;;;;;;;;;;;;;;;;;5115002;28;19961;-82
2022/07/27 00:49:47;;;;;;;;;;;;;;;;;;5116301;28;19920;-82
2022/07/27 00:52:13;;;;;;;;;;;;;;;;;;5115930;28;19923;-82
2022/07/27 00:54:39;;;;;;;;;;;;;;;;;;5115228;28;19919;-82
2022/07/27 00:57:05;;;;;;;;;;;;;;;;;;5116296;28;19916;-82
2022/07/27 00:59:31;;;;;;;;;;;;;;;;;;5116265;28;19919;-82
2022/07/27 01:01:57;;;;;;;;;;;;;;;;;;5116794;28;19915;-82
2022/07/27 01:04:22;;;;;;;;;;;;;;;;;;5116020;28;20371;-82
2022/07/27 01:06:48;;;;;;;;;;;;;;;;;;5116733;28;19931;-82
2022/07/27 01:11:57;;;;;;;;;;;;;;;;;;5116214;28;20050;-82
2022/07/27 01:14:23;;;;;;;;;;;;;;;;;;5114739;28;20271;-82
2022/07/27 01:16:50;;;;;;;;;;;;;;;;;;5114954;28;20019;-82
2022/07/27 01:19:16;;;;;;;;;;;;;;;;;;5114871;28;19916;-82
2022/07/27 01:21:42;;;;;;;;;;;;;;;;;;5121392;28;20294;-82
2022/07/27 01:24:07;;;;;;;;;;;;;;;;;;5135412;28;20011;-83
2022/07/27 01:26:34;;;;;;;;;;;;;;;;;;5137268;27;19923;-84
2022/07/27 01:29:00;;;;;;;;;;;;;;;;;;5115688;28;19926;-82
2022/07/27 01:31:26;;;;;;;;;;;;;;;;;;5122640;28;20290;-82
2022/07/27 01:33:51;;;;;;;;;;;;;;;;;;5115671;28;19923;-82
2022/07/27 01:36:17;;;;;;;;;;;;;;;;;;5122163;28;19931;-82
2022/07/27 01:38:42;;;;;;;;;;;;;;;;;;5117178;28;20313;-83
2022/07/27 01:41:08;;;;;;;;;;;;;;;;;;5117626;28;19926;-82
2022/07/27 01:43:34;;;;;;;;;;;;;;;;;;5116092;28;19919;-82
2022/07/27 01:45:59;;;;;;;;;;;;;;;;;;5119787;28;19915;-80
2022/07/27 01:48:26;;;;;;;;;;;;;;;;;;5120468;27;19927;-80
2022/07/27 01:50:52;;;;;;;;;;;;;;;;;;5118935;28;19923;-80
2022/07/27 01:53:18;;;;;;;;;;;;;;;;;;5127958;28;19926;-80
2022/07/27 01:55:43;;;;;;;;;;;;;;;;;;5119566;28;20343;-80
2022/07/27 01:58:09;;;;;;;;;;;;;;;;;;5124540;28;19923;-81
2022/07/27 02:00:34;;;;;;;;;;;;;;;;;;5120604;28;20355;-81
2022/07/27 02:03:00;;;;;;;;;;;;;;;;;;5123347;28;19927;-82
2022/07/27 02:05:25;;;;;;;;;;;;;;;;;;5115213;28;20393;-82
2022/07/27 02:07:51;;;;;;;;;;;;;;;;;;5114812;28;19919;-82
2022/07/27 02:10:16;;;;;;;;;;;;;;;;;;5115835;28;20436;-81
2022/07/27 02:12:43;;;;;;;;;;;;;;;;;;5114406;28;19939;-82
2022/07/27 02:15:13;;;;;;;;;;;;;;;;;;5116424;28;19974;-82
2022/07/27 02:17:39;;;;;;;;;;;;;;;;;;5115740;28;19916;-81
2022/07/27 02:20:05;;;;;;;;;;;;;;;;;;5119381;28;19922;-81
2022/07/27 02:22:30;;;;;;;;;;;;;;;;;;5119203;28;19923;-82
2022/07/27 02:24:56;;;;;;;;;;;;;;;;;;5119384;28;19916;-82
2022/07/27 02:27:22;;;;;;;;;;;;;;;;;;5119555;28;19916;-82
2022/07/27 02:29:48;;;;;;;;;;;;;;;;;;5119225;28;19915;-82
2022/07/27 02:32:13;;;;;;;;;;;;;;;;;;5119234;28;19922;-82
2022/07/27 02:34:39;;;;;;;;;;;;;;;;;;5119553;28;19915;-82
2022/07/27 02:37:04;;;;;;;;;;;;;;;;;;5118091;28;19930;-82
2022/07/27 02:39:29;;;;;;;;;;;;;;;;;;5117787;28;19973;-82
2022/07/27 02:41:55;;;;;;;;;;;;;;;;;;5117850;28;19954;-81
2022/07/27 02:44:20;;;;;;;;;;;;;;;;;;5119196;28;19959;-82
2022/07/27 02:46:46;;;;;;;;;;;;;;;;;;5120153;28;20274;-82
2022/07/27 02:49:11;;;;;;;;;;;;;;;;;;5118683;28;19916;-82
2022/07/27 02:51:37;;;;;;;;;;;;;;;;;;5119323;28;20371;-82
2022/07/27 02:54:02;;;;;;;;;;;;;;;;;;5118694;27;19923;-79
2022/07/27 02:56:28;;;;;;;;;;;;;;;;;;5118301;28;19923;-80
2022/07/27 02:58:54;;;;;;;;;;;;;;;;;;5118746;28;19919;-80
2022/07/27 03:01:19;;;;;;;;;;;;;;;;;;5133953;27;19915;-79
2022/07/27 03:03:46;;;;;;;;;;;;;;;;;;5139597;27;19938;-82
2022/07/27 03:06:12;;;;;;;;;;;;;;;;;;5129905;27;19920;-79
2022/07/27 03:08:38;;;;;;;;;;;;;;;;;;5116849;28;19946;-79
2022/07/27 03:11:03;;;;;;;;;;;;;;;;;;5126637;27;19920;-79
2022/07/27 03:13:29;;;;;;;;;;;;;;;;;;5116397;28;19916;-81
2022/07/27 03:15:54;;;;;;;;;;;;;;;;;;5116486;28;20014;-87
2022/07/27 03:18:20;;;;;;;;;;;;;;;;;;5117405;28;20290;-82
2022/07/27 03:20:45;;;;;;;;;;;;;;;;;;5123610;27;20367;-81
2022/07/27 03:23:11;;;;;;;;;;;;;;;;;;5136055;27;19942;-80
2022/07/27 03:25:36;;;;;;;;;;;;;;;;;;5137409;27;20089;-82
2022/07/27 03:28:02;;;;;;;;;;;;;;;;;;5124454;27;20442;-80
2022/07/27 03:30:27;;;;;;;;;;;;;;;;;;5120802;27;19919;-81
2022/07/27 03:32:53;;;;;;;;;;;;;;;;;;5137451;27;20355;-81
2022/07/27 03:35:18;;;;;;;;;;;;;;;;;;5137271;27;19915;-80
2022/07/27 03:37:44;;;;;;;;;;;;;;;;;;5117662;27;19919;-83
2022/07/27 03:40:10;;;;;;;;;;;;;;;;;;5115512;28;20002;-80
2022/07/27 03:42:35;;;;;;;;;;;;;;;;;;5127963;27;20470;-80
2022/07/27 03:45:01;;;;;;;;;;;;;;;;;;5132250;27;20022;-80
2022/07/27 03:47:26;;;;;;;;;;;;;;;;;;5123157;27;19940;-81
2022/07/27 03:49:52;;;;;;;;;;;;;;;;;;5118382;27;19927;-84
2022/07/27 03:52:18;;;;;;;;;;;;;;;;;;5128747;27;19923;-81
2022/07/27 03:54:44;;;;;;;;;;;;;;;;;;5120770;27;19926;-83
2022/07/27 03:57:09;;;;;;;;;;;;;;;;;;5115979;27;20286;-80
2022/07/27 03:59:34;;;;;;;;;;;;;;;;;;5123677;27;20018;-81
2022/07/27 04:02:00;;;;;;;;;;;;;;;;;;5123503;27;20010;-81
2022/07/27 04:04:25;;;;;;;;;;;;;;;;;;5116215;28;20375;-87
2022/07/27 04:06:51;;;;;;;;;;;;;;;;;;5121240;27;20006;-87
2022/07/27 04:09:16;;;;;;;;;;;;;;;;;;5118172;27;19920;-84
2022/07/27 04:11:42;;;;;;;;;;;;;;;;;;5123553;27;20015;-82
2022/07/27 04:14:08;;;;;;;;;;;;;;;;;;5121727;27;20015;-89
2022/07/27 04:16:33;;;;;;;;;;;;;;;;;;5124022;27;19958;-89
2022/07/27 04:18:58;;;;;;;;;;;;;;;;;;5122252;27;19919;-81
2022/07/27 04:21:24;;;;;;;;;;;;;;;;;;5125933;27;19923;-80
2022/07/27 04:23:49;;;;;;;;;;;;;;;;;;5126098;27;19919;-86
2022/07/27 04:26:14;;;;;;;;;;;;;;;;;;5125975;27;20015;-81
2022/07/27 04:28:40;;;;;;;;;;;;;;;;;;5136492;27;19916;-80
2022/07/27 04:31:06;;;;;;;;;;;;;;;;;;5135790;27;19923;-80
2022/07/27 04:33:31;;;;;;;;;;;;;;;;;;5136564;27;19915;-81
2022/07/27 04:35:57;;;;;;;;;;;;;;;;;;5136701;27;20298;-82
2022/07/27 04:38:22;;;;;;;;;;;;;;;;;;5138970;27;19915;-81
2022/07/27 04:40:48;;;;;;;;;;;;;;;;;;5137082;27;19930;-81
2022/07/27 04:43:13;;;;;;;;;;;;;;;;;;5137095;27;19916;-81
2022/07/27 04:45:38;;;;;;;;;;;;;;;;;;5136859;27;19992;-81
2022/07/27 04:48:08;;;;;;;;;;;;;;;;;;5137604;27;19916;-81
2022/07/27 04:50:44;;;;;;;;;;;;;;;;;;5137661;27;20393;-80
2022/07/27 04:53:10;;;;;;;;;;;;;;;;;;5137583;27;19961;-81
2022/07/27 04:55:36;;;;;;;;;;;;;;;;;;5137112;27;19922;-83
2022/07/27 04:58:01;;;;;;;;;;;;;;;;;;5137566;27;20274;-81
2022/07/27 05:00:27;;;;;;;;;;;;;;;;;;5138007;27;19919;-81
2022/07/27 05:02:52;;;;;;;;;;;;;;;;;;5137174;27;19916;-80
2022/07/27 05:05:18;;;;;;;;;;;;;;;;;;5138171;27;19950;-81
2022/07/27 05:07:43;;;;;;;;;;;;;;;;;;5137647;27;19916;-81
2022/07/27 05:10:09;;;;;;;;;;;;;;;;;;5135936;27;20283;-81
2022/07/27 05:12:35;;;;;;;;;;;;;;;;;;5116500;28;19922;-81
2022/07/27 05:15:00;;;;;;;;;;;;;;;;;;5116501;28;20003;-81
2022/07/27 05:17:26;;;;;;;;;;;;;;;;;;5116006;28;19923;-81
2022/07/27 05:19:51;;;;;;;;;;;;;;;;;;5116444;28;19916;-81
2022/07/27 05:22:16;;;;;;;;;;;;;;;;;;5116268;28;20065;-81
2022/07/27 05:24:42;;;;;;;;;;;;;;;;;;5115359;28;19920;-82
2022/07/27 05:27:07;;;;;;;;;;;;;;;;;;5116689;28;19951;-81
2022/07/27 05:29:33;;;;;;;;;;;;;;;;;;5116274;28;19923;-82
2022/07/27 05:31:58;;;;;;;;;;;;;;;;;;5115423;28;20321;-81
2022/07/27 05:34:24;;;;;;;;;;;;;;;;;;5116770;28;20294;-81
2022/07/27 05:36:49;;;;;;;;;;;;;;;;;;5116425;28;20387;-82
2022/07/27 05:39:14;;;;;;;;;;;;;;;;;;5116153;28;20393;-81
2022/07/27 05:41:40;;;;;;;;;;;;;;;;;;5114890;28;19971;-82
2022/07/27 05:44:06;;;;;;;;;;;;;;;;;;5115329;28;19916;-82
2022/07/27 05:46:32;;;;;;;;;;;;;;;;;;5116765;28;19923;-81
2022/07/27 05:48:58;;;;;;;;;;;;;;;;;;5114951;28;19916;-81
2022/07/27 05:51:23;;;;;;;;;;;;;;;;;;5116632;28;19916;-81
2022/07/27 05:53:48;;;;;;;;;;;;;;;;;;5117528;28;19919;-81
2022/07/27 05:56:14;;;;;;;;;;;;;;;;;;5120977;28;19920;-81
2022/07/27 05:58:39;;;;;;;;;;;;;;;;;;5120631;28;19916;-82
2022/07/27 06:01:05;;;;;;;;;;;;;;;;;;5121026;28;20382;-81
2022/07/27 06:03:30;;;;;;;;;;;;;;;;;;5120372;28;19920;-82
2022/07/27 06:07:57;;;;;;;;;;;;;;;;;;5120626;28;19912;-81
2022/07/27 06:08:41;;;;;;;;;;;;;;;;;;5120225;28;20263;-82
2022/07/27 06:11:06;;;;;;;;;;;;;;;;;;5122487;28;19912;-81
2022/07/27 06:13:34;;;;;;;;;;;;;;;;;;5121112;28;19916;-81
2022/07/27 06:16:00;;;;;;;;;;;;;;;;;;5121368;28;19923;-82
2022/07/27 06:18:25;;;;;;;;;;;;;;;;;;5122452;28;19911;-82
2022/07/27 06:20:51;;;;;;;;;;;;;;;;;;5122247;27;19923;-82
2022/07/27 06:23:16;;;;;;;;;;;;;;;;;;5121005;28;19920;-82
2022/07/27 06:25:42;;;;;;;;;;;;;;;;;;5123614;27;19920;-82
2022/07/27 06:28:08;;;;;;;;;;;;;;;;;;5131825;27;19965;-83
2022/07/27 06:30:36;;;;;;;;;;;;;;;;;;5137643;27;20291;-83
2022/07/27 06:33:03;;;;;;;;;;;;;;;;;;5134449;27;19920;-87
2022/07/27 06:35:29;;;;;;;;;;;;;;;;;;5139144;27;19923;-82
2022/07/27 06:37:55;;;;;;;;;;;;;;;;;;5137942;27;19916;-82
2022/07/27 06:40:20;;;;;;;;;;;;;;;;;;5131363;27;19958;-85
2022/07/27 06:42:46;;;;;;;;;;;;;;;;;;5145188;27;19927;-84
2022/07/27 06:45:11;;;;;;;;;;;;;;;;;;5132443;27;19923;-82
2022/07/27 06:47:39;;;;;;;;;;;;;;;;;;5139844;27;19920;-83
2022/07/27 06:50:05;;;;;;;;;;;;;;;;;;5137910;27;20383;-82
2022/07/27 06:52:34;;;;;;;;;;;;;;;;;;5141135;27;19920;-82
2022/07/27 06:54:59;;;;;;;;;;;;;;;;;;5142951;27;19954;-82
2022/07/27 06:57:25;;;;;;;;;;;;;;;;;;5133189;27;19911;-82
2022/07/27 06:59:50;;;;;;;;;;;;;;;;;;5139149;27;19903;-83
2022/07/27 07:02:16;;;;;;;;;;;;;;;;;;5138294;27;19920;-82
2022/07/27 07:04:42;;;;;;;;;;;;;;;;;;5128248;27;19920;-86
2022/07/27 07:07:07;;;;;;;;;;;;;;;;;;5133844;27;19924;-83
2022/07/27 07:09:33;;;;;;;;;;;;;;;;;;5123322;27;19931;-83
2022/07/27 07:11:58;;;;;;;;;;;;;;;;;;5125560;27;19958;-83
2022/07/27 07:14:26;;;;;;;;;;;;;;;;;;5129114;27;19964;-84
2022/07/27 07:16:52;;;;;;;;;;;;;;;;;;5118484;28;19923;-83
2022/07/27 07:19:18;;;;;;;;;;;;;;;;;;5120862;27;19924;-82
2022/07/27 07:21:50;;;;;;;;;;;;;;;;;;5128594;27;19919;-81
2022/07/27 07:24:16;;;;;;;;;;;;;;;;;;5124528;27;20391;-82
2022/07/27 07:26:41;;;;;;;;;;;;;;;;;;5128393;27;19922;-81
2022/07/27 07:29:07;;;;;;;;;;;;;;;;;;5128724;27;19920;-82
2022/07/27 07:34:13;;;;;;;;;;;;;;;;;;5120893;27;20378;-83
2022/07/27 07:36:39;;;;;;;;;;;;;;;;;;5124128;27;19971;-85
2022/07/27 07:39:05;;;;;;;;;;;;;;;;;;5125659;27;19942;-81
2022/07/27 07:41:30;;;;;;;;;;;;;;;;;;5134163;27;19923;-84
2022/07/27 07:43:55;;;;;;;;;;;;;;;;;;5123954;27;20018;-81
2022/07/27 07:46:21;;;;;;;;;;;;;;;;;;5129800;27;19942;-84
2022/07/27 07:48:46;;;;;;;;;;;;;;;;;;5124974;27;19920;-82
2022/07/27 07:51:12;;;;;;;;;;;;;;;;;;5124130;27;19942;-84
2022/07/27 07:53:37;;;;;;;;;;;;;;;;;;5127618;27;19951;-84
2022/07/27 07:56:03;;;;;;;;;;;;;;;;;;5124384;27;20354;-83
2022/07/27 07:58:30;;;;;;;;;;;;;;;;;;5128345;27;20260;-82
2022/07/27 08:00:55;;;;;;;;;;;;;;;;;;5125630;27;20007;-81
2022/07/27 08:03:23;;;;;;;;;;;;;;;;;;5130769;27;21617;-81
2022/07/27 08:05:49;;;;;;;;;;;;;;;;;;5122608;27;19958;-83
2022/07/27 08:08:15;;;;;;;;;;;;;;;;;;5125610;27;19931;-84
2022/07/27 08:10:41;;;;;;;;;;;;;;;;;;5125539;27;19923;-83
2022/07/27 08:13:07;;;;;;;;;;;;;;;;;;5125824;27;20366;-84
2022/07/27 08:15:33;;;;;;;;;;;;;;;;;;5127267;27;19919;-83
2022/07/27 08:17:58;;;;;;;;;;;;;;;;;;5125134;27;19931;-82
2022/07/27 08:20:27;;;;;;;;;;;;;;;;;;5126582;27;20024;-81
2022/07/27 08:22:52;;;;;;;;;;;;;;;;;;5127942;27;19920;-82
2022/07/27 08:25:18;;;;;;;;;;;;;;;;;;5125470;27;20006;-82
2022/07/27 08:27:43;;;;;;;;;;;;;;;;;;5131187;27;19924;-83
2022/07/27 08:30:09;;;;;;;;;;;;;;;;;;5127722;27;19930;-82
2022/07/27 08:32:47;;;;;;;;;;;;;;;;;;5123567;27;20279;-82
2022/07/27 08:35:16;;;;;;;;;;;;;;;;;;5124661;27;19920;-81
2022/07/27 08:37:41;;;;;;;;;;;;;;;;;;5125833;27;20286;-81
2022/07/27 08:40:07;;;;;;;;;;;;;;;;;;5119755;27;19934;-81
2022/07/27 08:42:32;;;;;;;;;;;;;;;;;;5124355;27;19927;-82
2022/07/27 08:44:59;;;;;;;;;;;;;;;;;;5127775;27;19923;-82
2022/07/27 08:47:26;;;;;;;;;;;;;;;;;;5129407;27;20283;-81
2022/07/27 08:49:51;;;;;;;;;;;;;;;;;;5119986;27;19979;-82
2022/07/27 08:52:17;;;;;;;;;;;;;;;;;;5138830;27;20463;-81
2022/07/27 08:54:42;;;;;;;;;;;;;;;;;;5129745;27;20014;-82
2022/07/27 08:57:08;;;;;;;;;;;;;;;;;;5124429;27;19920;-81
2022/07/27 08:59:33;;;;;;;;;;;;;;;;;;5116347;28;20355;-81
2022/07/27 09:01:59;;;;;;;;;;;;;;;;;;5117424;28;20420;-81
2022/07/27 09:04:25;;;;;;;;;;;;;;;;;;5115660;28;19923;-81
2022/07/27 09:06:50;;;;;;;;;;;;;;;;;;5117223;28;19916;-81
2022/07/27 09:09:19;;;;;;;;;;;;;;;;;;5117015;28;19916;-82
2022/07/27 09:12:02;;;;;;;;;;;;;;;;;;5116504;28;19916;-81
2022/07/27 09:14:31;;;;;;;;;;;;;;;;;;5116957;28;19923;-81
2022/07/27 09:16:57;;;;;;;;;;;;;;;;;;5117917;28;19978;-81
2022/07/27 09:19:23;;;;;;;;;;;;;;;;;;5117942;28;19959;-81
2022/07/27 09:21:48;;;;;;;;;;;;;;;;;;5118669;28;19951;-88
2022/07/27 09:24:14;;;;;;;;;;;;;;;;;;5134747;28;19916;-86
2022/07/27 09:26:39;;;;;;;;;;;;;;;;;;5137010;27;19941;-81
2022/07/27 09:29:05;;;;;;;;;;;;;;;;;;5140119;27;20294;-82
2022/07/27 09:31:31;;;;;;;;;;;;;;;;;;5140498;27;19926;-81
2022/07/27 09:33:57;;;;;;;;;;;;;;;;;;5138887;27;19915;-81
2022/07/27 09:36:24;;;;;;;;;;;;;;;;;;5140066;27;19916;-82
2022/07/27 09:38:54;;;;;;;;;;;;;;;;;;5133184;27;19968;-83
2022/07/27 09:41:20;;;;;;;;;;;;;;;;;;5135026;27;19926;-82
2022/07/27 09:43:50;;;;;;;;;;;;;;;;;;5139741;27;19916;-82
2022/07/27 09:46:26;;;;;;;;;;;;;;;;;;5125073;27;19919;-81
2022/07/27 09:48:52;;;;;;;;;;;;;;;;;;5125992;27;20434;-82
2022/07/27 09:51:18;;;;;;;;;;;;;;;;;;5126039;27;20027;-83
2022/07/27 09:53:44;;;;;;;;;;;;;;;;;;5130400;27;19951;-82
2022/07/27 09:56:12;;;;;;;;;;;;;;;;;;5139894;27;19916;-83
2022/07/27 09:58:39;;;;;;;;;;;;;;;;;;5140476;27;20420;-82
2022/07/27 10:01:04;;;;;;;;;;;;;;;;;;5140833;27;19968;-85
2022/07/27 10:03:30;;;;;;;;;;;;;;;;;;5144691;27;19923;-82
2022/07/27 10:05:55;;;;;;;;;;;;;;;;;;5144473;27;20014;-83
2022/07/27 10:08:21;;;;;;;;;;;;;;;;;;5140450;27;20331;-83
2022/07/27 10:10:47;;;;;;;;;;;;;;;;;;5141912;27;19916;-83
2022/07/27 10:13:12;;;;;;;;;;;;;;;;;;5140366;27;19916;-82
2022/07/27 10:15:39;;;;;;;;;;;;;;;;;;5146175;27;19926;-82
2022/07/27 10:18:07;;;;;;;;;;;;;;;;;;5140230;27;19915;-81
2022/07/27 10:20:37;;;;;;;;;;;;;;;;;;5139379;27;20386;-83
2022/07/27 10:23:02;;;;;;;;;;;;;;;;;;5140197;27;19919;-83
2022/07/27 10:25:30;;;;;;;;;;;;;;;;;;5141375;27;20018;-83
2022/07/27 10:28:22;;;;;;;;;;;;;;;;;;5146491;27;19916;-82
2022/07/27 10:30:48;;;;;;;;;;;;;;;;;;5145805;27;20350;-82
2022/07/27 10:33:43;;;;;;;;;;;;;;;;;;;;;
2022/07/27 10:36:26;;;;;;;;;;;;;;;;;;5124966;27;20002;-83
2022/07/27 10:38:55;;;;;;;;;;;;;;;;;;5142752;27;19919;-83
2022/07/27 10:41:23;;;;;;;;;;;;;;;;;;5136419;27;19966;-83
2022/07/27 10:44:12;;;;;;;;;;;;;;;;;;5132767;27;19916;-83
2022/07/27 10:46:47;;;;;;;;;;;;;;;;;;5127733;27;19923;-84
2022/07/27 10:52:05;;;;;;;;;;;;;;;;;;5246548;22;19924;-82
2022/07/27 10:54:40;;;;;;;;;;;;;;;;;;5114392;28;19946;-83
2022/07/27 10:57:06;;;;;;;;;;;;;;;;;;5097485;28;19919;-80
2022/07/27 10:59:38;;;;;;;;;;;;;;;;;;5084896;28;19970;-82
2022/07/27 11:02:11;;;;;;;;;;;;;;;;;;5084537;28;19939;-82
2022/07/27 11:04:44;;;;;;;;;;;;;;;;;;5088815;28;19916;-82
2022/07/27 11:07:10;;;;;;;;;;;;;;;;;;5104717;28;20022;-82
2022/07/27 11:09:36;;;;;;;;;;;;;;;;;;5099414;28;20009;-82
2022/07/27 11:12:03;;;;;;;;;;;;;;;;;;5100159;28;20190;-81
2022/07/27 11:14:29;;;;;;;;;;;;;;;;;;5100338;28;20376;-83
2022/07/27 11:16:55;;;;;;;;;;;;;;;;;;5103116;28;19946;-85
2022/07/27 11:19:22;;;;;;;;;;;;;;;;;;5081394;28;20391;-82
2022/07/27 11:21:48;;;;;;;;;;;;;;;;;;5100439;28;19921;-83
2022/07/27 11:24:16;;;;;;;;;;;;;;;;;;5101233;28;19923;-82
2022/07/27 11:26:43;;;;;;;;;;;;;;;;;;5101600;28;19917;-82
2022/07/27 11:29:09;;;;;;;;;;;;;;;;;;5096430;28;19962;-81
2022/07/27 11:31:36;;;;;;;;;;;;;;;;;;5068694;28;19916;-84
2022/07/27 11:34:02;;;;;;;;;;;;;;;;;;5099171;28;20019;-82
2022/07/27 11:36:36;;;;;;;;;;;;;;;;;;5101183;28;20019;-82
2022/07/27 11:39:02;;;;;;;;;;;;;;;;;;5097818;28;19943;-83
2022/07/27 11:41:28;;;;;;;;;;;;;;;;;;5094653;28;19920;-82
2022/07/27 11:43:57;;;;;;;;;;;;;;;;;;5079766;28;19916;-87
2022/07/27 11:46:25;;;;;;;;;;;;;;;;;;5108710;28;19904;-88
2022/07/27 11:48:50;;;;;;;;;;;;;;;;;;5098842;28;19920;-86
2022/07/27 11:51:16;;;;;;;;;;;;;;;;;;5107697;28;19920;-83
2022/07/27 11:53:42;;;;;;;;;;;;;;;;;;5108168;28;19931;-83
2022/07/27 11:56:07;;;;;;;;;;;;;;;;;;5098107;28;19958;-82
2022/07/27 11:58:34;;;;;;;;;;;;;;;;;;5100072;28;19916;-85
2022/07/27 12:00:59;;;;;;;;;;;;;;;;;;5101453;28;19912;-83
2022/07/27 12:03:28;;;;;;;;;;;;;;;;;;5080707;28;19920;-82
2022/07/27 12:05:58;;;;;;;;;;;;;;;;;;5079702;28;19916;-82
2022/07/27 12:08:25;;;;;;;;;;;;;;;;;;5107104;28;19920;-91
2022/07/27 12:10:57;;;;;;;;;;;;;;;;;;5093373;28;19920;-84
2022/07/27 12:13:30;;;;;;;;;;;;;;;;;;5072823;28;20031;-82
2022/07/27 12:15:56;;;;;;;;;;;;;;;;;;5080927;28;19920;-82
2022/07/27 12:18:21;;;;;;;;;;;;;;;;;;5074965;28;19962;-85
2022/07/27 12:20:47;;;;;;;;;;;;;;;;;;5076587;28;19916;-83
2022/07/27 12:23:27;;;;;;;;;;;;;;;;;;5075086;28;19921;-84
2022/07/27 12:25:53;;;;;;;;;;;;;;;;;;5075122;28;19921;-82
2022/07/27 12:28:24;;;;;;;;;;;;;;;;;;5076115;28;19916;-82
2022/07/27 12:30:51;;;;;;;;;;;;;;;;;;5075514;28;19917;-82
2022/07/27 12:33:29;;;;;;;;;;;;;;;;;;5076482;28;20295;-83
2022/07/27 12:35:55;;;;;;;;;;;;;;;;;;5075314;28;19916;-83
2022/07/27 12:38:21;;;;;;;;;;;;;;;;;;5074751;28;20329;-84
2022/07/27 12:40:51;;;;;;;;;;;;;;;;;;5076269;28;19916;-84
2022/07/27 12:43:21;;;;;;;;;;;;;;;;;;5075978;28;19923;-86
2022/07/27 12:45:47;;;;;;;;;;;;;;;;;;5091787;28;19923;-82
2022/07/27 12:48:17;;;;;;;;;;;;;;;;;;5096438;28;19920;-82
2022/07/27 12:50:44;;;;;;;;;;;;;;;;;;5096835;28;20406;-86
2022/07/27 12:53:10;;;;;;;;;;;;;;;;;;5096191;28;20476;-82
2022/07/27 12:55:36;;;;;;;;;;;;;;;;;;5077856;28;19920;-84
2022/07/27 12:58:01;;;;;;;;;;;;;;;;;;5096109;28;19922;-83
2022/07/27 13:00:30;;;;;;;;;;;;;;;;;;5096404;28;19916;-83
2022/07/27 13:02:56;;;;;;;;;;;;;;;;;;5078821;28;20303;-83
2022/07/27 13:05:22;;;;;;;;;;;;;;;;;;5097972;28;19916;-85
2022/07/27 13:07:47;;;;;;;;;;;;;;;;;;5092884;28;20019;-90
2022/07/27 13:10:19;;;;;;;;;;;;;;;;;;5078699;28;20047;-92
2022/07/27 13:12:44;;;;;;;;;;;;;;;;;;5077469;28;20379;-85
2022/07/27 13:15:13;;;;;;;;;;;;;;;;;;5080151;28;20007;-91
2022/07/27 13:17:40;;;;;;;;;;;;;;;;;;5082433;28;20038;-87
2022/07/27 13:20:09;;;;;;;;;;;;;;;;;;5089398;28;19924;-85
2022/07/27 13:22:35;;;;;;;;;;;;;;;;;;5092213;28;19927;-84
2022/07/27 13:25:04;;;;;;;;;;;;;;;;;;5083143;28;20209;-85
2022/07/27 13:27:30;;;;;;;;;;;;;;;;;;5083336;28;20374;-83
2022/07/27 13:29:55;;;;;;;;;;;;;;;;;;5083006;28;19950;-83
2022/07/27 13:32:21;;;;;;;;;;;;;;;;;;5082458;28;19946;-85
2022/07/27 13:34:47;;;;;;;;;;;;;;;;;;5090039;28;19963;-86
2022/07/27 13:37:13;;;;;;;;;;;;;;;;;;5068112;28;19920;-84
2022/07/27 13:39:38;;;;;;;;;;;;;;;;;;5093355;28;19979;-87
2022/07/27 13:42:04;;;;;;;;;;;;;;;;;;5085454;28;19943;-84
2022/07/27 13:44:29;;;;;;;;;;;;;;;;;;5085370;28;19920;-85
2022/07/27 13:46:55;;;;;;;;;;;;;;;;;;5078461;28;20378;-83
2022/07/27 13:49:21;;;;;;;;;;;;;;;;;;5077753;28;19916;-83
2022/07/27 13:51:46;;;;;;;;;;;;;;;;;;5095873;28;19924;-84
2022/07/27 13:54:12;;;;;;;;;;;;;;;;;;5076441;28;20025;-83
2022/07/27 13:56:37;;;;;;;;;;;;;;;;;;5096597;28;19920;-83
2022/07/27 13:59:03;;;;;;;;;;;;;;;;;;5095833;28;20386;-83
2022/07/27 14:01:30;;;;;;;;;;;;;;;;;;5076396;28;20325;-89
2022/07/27 14:03:55;;;;;;;;;;;;;;;;;;5077149;28;20295;-83
2022/07/27 14:06:20;;;;;;;;;;;;;;;;;;5092221;28;19916;-86
2022/07/27 14:08:46;;;;;;;;;;;;;;;;;;5074910;28;19920;-81
2022/07/27 14:11:12;;;;;;;;;;;;;;;;;;5093849;28;19923;-85
2022/07/27 14:13:37;;;;;;;;;;;;;;;;;;5091201;28;19928;-90
2022/07/27 14:16:05;;;;;;;;;;;;;;;;;;5095417;28;19926;-82
2022/07/27 14:18:31;;;;;;;;;;;;;;;;;;5098069;28;19935;-85
2022/07/27 14:20:58;;;;;;;;;;;;;;;;;;5075218;28;19920;-83
2022/07/27 14:23:24;;;;;;;;;;;;;;;;;;5079059;28;20015;-81
2022/07/27 14:25:49;;;;;;;;;;;;;;;;;;5099393;28;19939;-82
2022/07/27 14:28:15;;;;;;;;;;;;;;;;;;5100645;28;19945;-82
2022/07/27 14:30:41;;;;;;;;;;;;;;;;;;5082889;28;20370;-82
2022/07/27 14:33:06;;;;;;;;;;;;;;;;;;5081384;28;19967;-83
2022/07/27 14:35:32;;;;;;;;;;;;;;;;;;5099037;28;19920;-82
2022/07/27 14:37:59;;;;;;;;;;;;;;;;;;5078681;28;19920;-83
2022/07/27 14:40:24;;;;;;;;;;;;;;;;;;5099059;28;20000;-83
2022/07/27 14:42:50;;;;;;;;;;;;;;;;;;5075477;28;20046;-81
2022/07/27 14:45:15;;;;;;;;;;;;;;;;;;5096765;28;19924;-88
2022/07/27 14:47:41;;;;;;;;;;;;;;;;;;5097080;28;19920;-82
2022/07/27 14:50:08;;;;;;;;;;;;;;;;;;5097475;28;20337;-84
2022/07/27 14:52:34;;;;;;;;;;;;;;;;;;5100215;28;19927;-83
2022/07/27 14:55:00;;;;;;;;;;;;;;;;;;5098968;28;19916;-84
2022/07/27 14:57:26;;;;;;;;;;;;;;;;;;5099891;28;19930;-83
2022/07/27 14:59:52;;;;;;;;;;;;;;;;;;5074650;28;19916;-84
2022/07/27 15:02:17;;;;;;;;;;;;;;;;;;5082695;28;19920;-84
2022/07/27 15:04:43;;;;;;;;;;;;;;;;;;5096719;28;19947;-82
2022/07/27 15:07:08;;;;;;;;;;;;;;;;;;5077811;28;19920;-85
2022/07/27 15:09:33;;;;;;;;;;;;;;;;;;5087651;28;20009;-85
2022/07/27 15:11:59;;;;;;;;;;;;;;;;;;5090008;28;19931;-82
2022/07/27 15:14:25;;;;;;;;;;;;;;;;;;5095995;28;19973;-82
2022/07/27 15:16:50;;;;;;;;;;;;;;;;;;5078044;28;19923;-83
2022/07/27 15:19:17;;;;;;;;;;;;;;;;;;5090052;28;20022;-86
2022/07/27 15:21:42;;;;;;;;;;;;;;;;;;5090763;28;20418;-82
2022/07/27 15:24:08;;;;;;;;;;;;;;;;;;5067230;28;19916;-82
2022/07/27 15:26:34;;;;;;;;;;;;;;;;;;5095815;28;19977;-82
2022/07/27 15:28:59;;;;;;;;;;;;;;;;;;5075940;28;19916;-82
2022/07/27 15:31:25;;;;;;;;;;;;;;;;;;5095988;28;20027;-81
2022/07/27 15:33:51;;;;;;;;;;;;;;;;;;5096053;28;20321;-82
2022/07/27 15:36:16;;;;;;;;;;;;;;;;;;5077762;28;19923;-82
2022/07/27 15:38:42;;;;;;;;;;;;;;;;;;5095962;28;20287;-82
2022/07/27 15:41:07;;;;;;;;;;;;;;;;;;5096140;28;20057;-83
2022/07/27 15:43:33;;;;;;;;;;;;;;;;;;5097367;28;20272;-80
2022/07/27 15:45:59;;;;;;;;;;;;;;;;;;5079011;28;20379;-82
2022/07/27 15:48:25;;;;;;;;;;;;;;;;;;5096132;28;20383;-82
2022/07/27 15:50:51;;;;;;;;;;;;;;;;;;5077213;28;19920;-81
2022/07/27 15:53:17;;;;;;;;;;;;;;;;;;5095748;28;20026;-80
2022/07/27 15:55:43;;;;;;;;;;;;;;;;;;5095028;28;20384;-81
2022/07/27 15:58:08;;;;;;;;;;;;;;;;;;5095433;28;19916;-81
2022/07/27 16:00:35;;;;;;;;;;;;;;;;;;5096371;28;19922;-80
2022/07/27 16:03:00;;;;;;;;;;;;;;;;;;5095347;28;19923;-80
2022/07/27 16:05:26;;;;;;;;;;;;;;;;;;5094706;28;19924;-82
2022/07/27 16:07:52;;;;;;;;;;;;;;;;;;5100651;28;19916;-84
2022/07/27 16:10:17;;;;;;;;;;;;;;;;;;5097822;28;19916;-81
2022/07/27 16:12:42;;;;;;;;;;;;;;;;;;5096111;28;20003;-80
2022/07/27 16:15:08;;;;;;;;;;;;;;;;;;5095175;28;19931;-81
2022/07/27 16:17:34;;;;;;;;;;;;;;;;;;5087335;28;19923;-84
2022/07/27 16:19:59;;;;;;;;;;;;;;;;;;5081537;28;20012;-82
2022/07/27 16:22:25;;;;;;;;;;;;;;;;;;5091047;28;19923;-81
2022/07/27 16:24:51;;;;;;;;;;;;;;;;;;5084329;28;20268;-81
2022/07/27 16:27:16;;;;;;;;;;;;;;;;;;5085259;28;20007;-83
2022/07/27 16:29:42;;;;;;;;;;;;;;;;;;5065235;28;19924;-85
2022/07/27 16:32:07;;;;;;;;;;;;;;;;;;5082412;28;19932;-91
2022/07/27 16:34:33;;;;;;;;;;;;;;;;;;5085324;28;20282;-83
2022/07/27 16:36:58;;;;;;;;;;;;;;;;;;5086727;28;19924;-85
2022/07/27 16:39:24;;;;;;;;;;;;;;;;;;5082331;28;19920;-83
2022/07/27 16:41:50;;;;;;;;;;;;;;;;;;5065413;28;19974;-82
2022/07/27 16:44:17;;;;;;;;;;;;;;;;;;5070416;28;19924;-83
2022/07/27 16:46:43;;;;;;;;;;;;;;;;;;5080014;28;20402;-86
2022/07/27 16:49:09;;;;;;;;;;;;;;;;;;5080743;28;19916;-82